Danielle C — WDC7686 — position and weather

sailwx.info

Track history (hours):
 
Tides and Currents Weather Stations Pressure Air Temp Water Temp Dewpoint Dewpoint Depression Visibility Wind Speed Wind Dir Waves Ship Positions

Danielle C

Owner: D&S Marine Service,LLC., Houma, LA. More information available from US FCC via Universal Licensing System and Coast Guard Vessel Documentation Center.

Last reported at 2018-May-24 17:17 UTC. Time now 2018-May-28 01:14 UTC.
Position N 28°57' W 095°18'.

Length 30 m; draft 2.4 m.

Type: . MMSI: 367075180.

Date/timePositionNaut miles runAvg speedWind from/ knotsBaromVisibWave heightAir tempDewpointWater temp
2018-May-24 17:17N 28°57' W 095°18'2 5.5
2018-May-24 17:00N 28°58' W 095°17'3 6.2
2018-May-24 16:30N 29°01' W 095°15'3 6.2
2018-May-24 16:00N 29°03' W 095°13'3 6.3
2018-May-24 15:30N 29°06' W 095°12'3 6.4
2018-May-24 15:00N 29°09' W 095°10'3 6.2
2018-May-24 14:30N 29°10' W 095°07'3 6.1
2018-May-24 14:00N 29°12' W 095°04'3 6.1
2018-May-24 13:30N 29°14' W 095°01'39 5.3
2018-May-24 06:07N 29°36' W 094°24'1 1.8
2018-May-24 05:46N 29°36' W 094°23'8 3.8
2018-May-24 03:38N 29°39' W 094°15'4 7.2
2018-May-24 03:09N 29°41' W 094°12'1 6.3
2018-May-24 03:00N 29°41' W 094°11'3 7.0
2018-May-24 02:30N 29°43' W 094°07'4 7.2
2018-May-24 02:00N 29°45' W 094°04'4 7.1
2018-May-24 01:31N 29°48' W 094°01'4 7.0
2018-May-24 01:00N 29°50' W 093°57'4 8.2
2018-May-24 00:30N 29°53' W 093°55'4 8.3
2018-May-24 00:00N 29°56' W 093°52'2 4.0
2018-May-23 23:30N 29°58' W 093°51'0 0.1
2018-May-23 23:00N 29°58' W 093°51'0 0.0
2018-May-23 22:30N 29°58' W 093°51'0 0.6
2018-May-23 22:00N 29°58' W 093°51'0 0.0
2018-May-23 21:30N 29°58' W 093°51'0 0.7
2018-May-23 21:00N 29°58' W 093°51'2 4.3
2018-May-23 20:30N 29°56' W 093°52'2 4.8
2018-May-23 20:00N 29°54' W 093°54'2 4.7
2018-May-23 19:30N 29°53' W 093°56'2 4.9
2018-May-23 19:00N 29°50' W 093°57'2 3.8
2018-May-23 18:31N 29°49' W 093°59'2 3.5
2018-May-23 18:00N 29°48' W 094°00'2 3.4
2018-May-23 17:30N 29°47' W 094°02'2 3.1
2018-May-23 17:00N 29°46' W 094°03'2 3.1
2018-May-23 16:30N 29°45' W 094°04'2 3.3
2018-May-23 15:59N 29°44' W 094°06'2 3.3
2018-May-23 15:30N 29°43' W 094°07'2 3.4
2018-May-23 15:00N 29°42' W 094°09'2 3.5
2018-May-23 14:30N 29°41' W 094°11'2 3.6
2018-May-23 14:00N 29°40' W 094°13'2 3.7
2018-May-23 13:29N 29°40' W 094°15'2 3.8
2018-May-23 13:00N 29°39' W 094°17'2 3.8
2018-May-23 12:30N 29°38' W 094°19'6 3.2
2018-May-23 10:35N 29°35' W 094°25'0 3.7
2018-May-23 10:28N 29°35' W 094°25'22 3.8
2018-May-23 04:34N 29°23' W 094°46'0 3.7
2018-May-23 04:27N 29°23' W 094°47'1 3.3
2018-May-23 04:00N 29°23' W 094°48'2 4.8
2018-May-23 03:29N 29°25' W 094°50'7 4.7
2018-May-23 01:54N 29°32' W 094°53'2 4.5
2018-May-23 01:30N 29°33' W 094°55'2 4.5
2018-May-23 01:00N 29°35' W 094°56'2 4.4
2018-May-23 00:30N 29°37' W 094°57'2 4.7
2018-May-22 23:59N 29°39' W 094°58'2 4.6
2018-May-22 23:30N 29°41' W 094°59'2 4.2
2018-May-22 23:00N 29°42' W 095°01'2 3.7
2018-May-22 22:30N 29°44' W 095°02'1 0.2
2018-May-22 13:33N 29°45' W 095°04'3 5.1
2018-May-22 13:02N 29°43' W 095°01'0 5.4
2018-May-22 12:57N 29°43' W 095°01'2 4.7
2018-May-22 12:30N 29°42' W 094°59'3 5.0
2018-May-22 12:00N 29°39' W 094°58'3 5.8
2018-May-22 11:30N 29°37' W 094°57'3 6.1
2018-May-22 11:00N 29°34' W 094°55'14 5.4
2018-May-22 08:27N 29°22' W 094°48'3 6.0
2018-May-22 08:00N 29°20' W 094°50'3 5.7
2018-May-22 07:30N 29°18' W 094°53'3 5.8
2018-May-22 07:00N 29°17' W 094°56'3 5.8
2018-May-22 06:30N 29°16' W 094°59'3 5.4
2018-May-22 06:00N 29°14' W 095°01'3 5.1
2018-May-22 05:30N 29°12' W 095°03'3 5.5
2018-May-22 05:00N 29°11' W 095°06'3 5.7
2018-May-22 04:30N 29°09' W 095°08'3 5.5
2018-May-22 04:00N 29°08' W 095°11'3 5.0
2018-May-22 03:28N 29°05' W 095°12'  
2018-May-18 06:37N 28°39' W 096°33'0 0.0
2018-May-18 05:11N 28°39' W 096°33'0 0.0
2018-May-18 05:01N 28°39' W 096°33'0 0.5
2018-May-18 04:19N 28°39' W 096°33'7 5.2
2018-May-18 02:55N 28°32' W 096°29'3 6.8
2018-May-18 02:30N 28°31' W 096°27'4 6.6
2018-May-18 01:51N 28°28' W 096°23'70 1.8
2018-May-16 11:20N 27°50' W 097°30'  
Track history (hours):
 
Tides and Currents Weather Stations Pressure Air Temp Water Temp Dewpoint Dewpoint Depression Visibility Wind Speed Wind Dir Waves Ship Positions

Danielle C

Owner: D&S Marine Service,LLC., Houma, LA. More information available from US FCC via Universal Licensing System and Coast Guard Vessel Documentation Center.

Last reported at 2018-May-24 17:17 UTC. Time now 2018-May-28 01:14 UTC.
Position N 28°57' W 095°18'.

Length 30 m; draft 2.4 m.

Type: . MMSI: 367075180.

Date/timePositionNaut miles runAvg speedWind from/ knotsBaromVisibWave heightAir tempDewpointWater temp
2018-May-24 17:17N 28°57' W 095°18'2 5.5
2018-May-24 17:00N 28°58' W 095°17'3 6.2
2018-May-24 16:30N 29°01' W 095°15'3 6.2
2018-May-24 16:00N 29°03' W 095°13'3 6.3
2018-May-24 15:30N 29°06' W 095°12'3 6.4
2018-May-24 15:00N 29°09' W 095°10'3 6.2
2018-May-24 14:30N 29°10' W 095°07'3 6.1
2018-May-24 14:00N 29°12' W 095°04'3 6.1
2018-May-24 13:30N 29°14' W 095°01'39 5.3
2018-May-24 06:07N 29°36' W 094°24'1 1.8
2018-May-24 05:46N 29°36' W 094°23'8 3.8
2018-May-24 03:38N 29°39' W 094°15'4 7.2
2018-May-24 03:09N 29°41' W 094°12'1 6.3
2018-May-24 03:00N 29°41' W 094°11'3 7.0
2018-May-24 02:30N 29°43' W 094°07'4 7.2
2018-May-24 02:00N 29°45' W 094°04'4 7.1
2018-May-24 01:31N 29°48' W 094°01'4 7.0
2018-May-24 01:00N 29°50' W 093°57'4 8.2
2018-May-24 00:30N 29°53' W 093°55'4 8.3
2018-May-24 00:00N 29°56' W 093°52'2 4.0
2018-May-23 23:30N 29°58' W 093°51'0 0.1
2018-May-23 23:00N 29°58' W 093°51'0 0.0
2018-May-23 22:30N 29°58' W 093°51'0 0.6
2018-May-23 22:00N 29°58' W 093°51'0 0.0
2018-May-23 21:30N 29°58' W 093°51'0 0.7
2018-May-23 21:00N 29°58' W 093°51'2 4.3
2018-May-23 20:30N 29°56' W 093°52'2 4.8
2018-May-23 20:00N 29°54' W 093°54'2 4.7
2018-May-23 19:30N 29°53' W 093°56'2 4.9
2018-May-23 19:00N 29°50' W 093°57'2 3.8
2018-May-23 18:31N 29°49' W 093°59'2 3.5
2018-May-23 18:00N 29°48' W 094°00'2 3.4
2018-May-23 17:30N 29°47' W 094°02'2 3.1
2018-May-23 17:00N 29°46' W 094°03'2 3.1
2018-May-23 16:30N 29°45' W 094°04'2 3.3
2018-May-23 15:59N 29°44' W 094°06'2 3.3
2018-May-23 15:30N 29°43' W 094°07'2 3.4
2018-May-23 15:00N 29°42' W 094°09'2 3.5
2018-May-23 14:30N 29°41' W 094°11'2 3.6
2018-May-23 14:00N 29°40' W 094°13'2 3.7
2018-May-23 13:29N 29°40' W 094°15'2 3.8
2018-May-23 13:00N 29°39' W 094°17'2 3.8
2018-May-23 12:30N 29°38' W 094°19'6 3.2
2018-May-23 10:35N 29°35' W 094°25'0 3.7
2018-May-23 10:28N 29°35' W 094°25'22 3.8
2018-May-23 04:34N 29°23' W 094°46'0 3.7
2018-May-23 04:27N 29°23' W 094°47'1 3.3
2018-May-23 04:00N 29°23' W 094°48'2 4.8
2018-May-23 03:29N 29°25' W 094°50'7 4.7
2018-May-23 01:54N 29°32' W 094°53'2 4.5
2018-May-23 01:30N 29°33' W 094°55'2 4.5
2018-May-23 01:00N 29°35' W 094°56'2 4.4
2018-May-23 00:30N 29°37' W 094°57'2 4.7
2018-May-22 23:59N 29°39' W 094°58'2 4.6
2018-May-22 23:30N 29°41' W 094°59'2 4.2
2018-May-22 23:00N 29°42' W 095°01'2 3.7
2018-May-22 22:30N 29°44' W 095°02'1 0.2
2018-May-22 13:33N 29°45' W 095°04'3 5.1
2018-May-22 13:02N 29°43' W 095°01'0 5.4
2018-May-22 12:57N 29°43' W 095°01'2 4.7
2018-May-22 12:30N 29°42' W 094°59'3 5.0
2018-May-22 12:00N 29°39' W 094°58'3 5.8
2018-May-22 11:30N 29°37' W 094°57'3 6.1
2018-May-22 11:00N 29°34' W 094°55'14 5.4
2018-May-22 08:27N 29°22' W 094°48'3 6.0
2018-May-22 08:00N 29°20' W 094°50'3 5.7
2018-May-22 07:30N 29°18' W 094°53'3 5.8
2018-May-22 07:00N 29°17' W 094°56'3 5.8
2018-May-22 06:30N 29°16' W 094°59'3 5.4
2018-May-22 06:00N 29°14' W 095°01'3 5.1
2018-May-22 05:30N 29°12' W 095°03'3 5.5
2018-May-22 05:00N 29°11' W 095°06'3 5.7
2018-May-22 04:30N 29°09' W 095°08'3 5.5
2018-May-22 04:00N 29°08' W 095°11'3 5.0
2018-May-22 03:28N 29°05' W 095°12'  
2018-May-18 06:37N 28°39' W 096°33'0 0.0
2018-May-18 05:11N 28°39' W 096°33'0 0.0
2018-May-18 05:01N 28°39' W 096°33'0 0.5
2018-May-18 04:19N 28°39' W 096°33'7 5.2
2018-May-18 02:55N 28°32' W 096°29'3 6.8
2018-May-18 02:30N 28°31' W 096°27'4 6.6
2018-May-18 01:51N 28°28' W 096°23'70 1.8
2018-May-16 11:20N 27°50' W 097°30'  

Dump ship's entire track history